GQNO

UTC

Nouakchott–Oumtounsy International Airport

Nouakchott, Mauritania

TAF Report

TAF GQNO 082300Z 0900/1006 34016KT 7000 NSC PROB40 TEMPO 0904/0908 BKN010

Issued

Jun 08 23:00 UTC

Valid From

Jun 09 00:00 UTC

Valid To

Jun 10 06:00 UTC

TAF Sections

  1. Jun 09 00:00 UTC - Jun 10 06:00 UTC

    TAF GQNO 082300Z 0900/1006 34016KT 7000 NSC

    Wind

    340° at 16 KTS

    Visibility

    7,000 M

    Clouds

    • No significant clouds
  2. Jun 09 04:00 UTC - Jun 09 08:00 UTC

    PROB40 TEMPO 0904/0908 BKN010

    Clouds

    • Broken at 1,000 ft AGL

    Ceiling

    Broken at 1,000 ft AGL